createdAt,value
2022-10-30T00:00:40.939Z,100.00
2022-10-30T00:03:12.056Z,100.00
2022-10-30T00:05:43.156Z,100.00
2022-10-30T00:08:12.240Z,100.00
2022-10-30T00:10:40.396Z,100.00
2022-10-30T00:13:08.634Z,100.00
2022-10-30T00:15:38.287Z,100.00
2022-10-30T00:18:06.472Z,100.00
2022-10-30T00:20:34.908Z,100.00
2022-10-30T00:23:02.998Z,100.00
2022-10-30T00:25:31.336Z,100.00
2022-10-30T00:27:59.514Z,100.00
2022-10-30T00:30:29.869Z,100.00
2022-10-30T00:33:00.236Z,100.00
2022-10-30T00:35:28.589Z,100.00
2022-10-30T00:37:57.137Z,100.00
2022-10-30T00:40:25.511Z,100.00
2022-10-30T00:42:53.666Z,100.00
2022-10-30T00:45:22.344Z,100.00
2022-10-30T00:47:53.348Z,100.00
2022-10-30T00:53:00.039Z,100.00
2022-10-30T00:55:29.199Z,100.00
2022-10-30T00:57:57.380Z,100.00
2022-10-30T01:00:26.068Z,100.00
2022-10-30T01:02:54.470Z,100.00
2022-10-30T01:05:24.568Z,100.00
2022-10-30T01:07:53.314Z,100.00
2022-10-30T01:10:21.664Z,100.00
2022-10-30T01:12:50.094Z,100.00
2022-10-30T01:15:18.403Z,100.00
2022-10-30T01:18:08.719Z,100.00
2022-10-30T01:20:53.017Z,100.00
2022-10-30T01:23:27.997Z,100.00
2022-10-30T01:25:59.901Z,100.00
2022-10-30T01:28:34.585Z,100.00
2022-10-30T01:31:13.440Z,100.00
2022-10-30T01:33:48.154Z,100.00
2022-10-30T01:36:20.656Z,100.00
2022-10-30T01:38:49.819Z,100.00
2022-10-30T01:41:18.439Z,100.00
2022-10-30T01:43:48.163Z,100.00
2022-10-30T01:46:43.144Z,100.00
2022-10-30T01:49:27.165Z,100.00
2022-10-30T01:52:00.479Z,100.00
2022-10-30T01:54:34.137Z,100.00
2022-10-30T01:57:05.423Z,100.00
2022-10-30T01:59:35.511Z,100.00
2022-10-30T02:02:03.785Z,100.00
2022-10-30T02:04:32.891Z,100.00
2022-10-30T02:07:02.652Z,100.00
2022-10-30T02:09:33.533Z,100.00
2022-10-30T02:12:01.772Z,100.00
2022-10-30T02:14:33.575Z,100.00
2022-10-30T02:17:05.897Z,100.00
2022-10-30T02:19:34.205Z,100.00
2022-10-30T02:22:05.650Z,100.00
2022-10-30T02:24:33.900Z,100.00
2022-10-30T02:27:02.174Z,100.00
2022-10-30T02:29:30.338Z,100.00
2022-10-30T02:32:00.369Z,100.00
2022-10-30T02:34:28.585Z,100.00
2022-10-30T02:36:59.015Z,100.00
2022-10-30T02:39:28.522Z,100.00
2022-10-30T02:41:56.850Z,96.70
2022-10-30T02:44:25.042Z,89.89
2022-10-30T02:46:53.159Z,86.50
2022-10-30T02:49:23.933Z,85.80
2022-10-30T02:51:53.159Z,85.70
2022-10-30T02:54:21.303Z,81.60
2022-10-30T02:56:51.868Z,82.77
2022-10-30T02:59:20.699Z,81.30
2022-10-30T03:01:51.260Z,81.29
2022-10-30T03:04:19.528Z,81.35
2022-10-30T03:06:47.627Z,81.39
2022-10-30T03:09:15.747Z,82.02
2022-10-30T03:11:44.470Z,79.00
2022-10-30T03:14:14.355Z,79.20
2022-10-30T03:16:42.512Z,78.33
2022-10-30T03:19:10.879Z,76.67
2022-10-30T03:21:39.075Z,79.11
2022-10-30T03:24:07.592Z,79.10
2022-10-30T03:26:36.174Z,81.93
2022-10-30T03:29:08.944Z,85.84
2022-10-30T03:31:38.584Z,88.69
2022-10-30T03:34:14.115Z,91.42
2022-10-30T03:36:42.977Z,92.55
2022-10-30T03:39:11.319Z,94.31
2022-10-30T03:41:40.636Z,95.06
2022-10-30T03:44:09.450Z,95.21
2022-10-30T03:46:39.367Z,95.58
2022-10-30T03:49:20.626Z,94.62
2022-10-30T03:51:48.827Z,95.27
2022-10-30T03:54:17.219Z,93.79
2022-10-30T03:56:45.940Z,88.53
2022-10-30T03:59:16.999Z,85.10
2022-10-30T04:01:57.101Z,80.96
2022-10-30T04:04:25.386Z,79.87
2022-10-30T04:06:53.500Z,78.49
2022-10-30T04:09:23.388Z,76.84
2022-10-30T04:11:51.505Z,76.19
2022-10-30T04:14:19.653Z,75.44
2022-10-30T04:16:47.840Z,75.61
2022-10-30T04:19:17.412Z,75.05
2022-10-30T04:21:47.897Z,73.48
2022-10-30T04:24:18.809Z,75.03
2022-10-30T04:26:50.193Z,75.03
2022-10-30T04:29:18.392Z,74.83
2022-10-30T04:31:46.555Z,76.44
2022-10-30T04:34:15.358Z,74.86
2022-10-30T04:36:45.839Z,73.90
2022-10-30T04:39:14.952Z,71.91
2022-10-30T04:41:44.266Z,72.94
2022-10-30T04:44:19.227Z,72.15
2022-10-30T04:46:47.350Z,72.73
2022-10-30T04:49:15.876Z,71.74
2022-10-30T04:51:46.414Z,70.31
2022-10-30T04:54:14.867Z,69.09
2022-10-30T04:56:43.410Z,68.38
2022-10-30T04:59:11.700Z,67.81
2022-10-30T05:01:40.163Z,68.58
2022-10-30T05:04:09.330Z,66.50
2022-10-30T05:06:37.799Z,65.78
2022-10-30T05:09:07.338Z,66.41
2022-10-30T05:11:44.317Z,64.85
2022-10-30T05:14:12.847Z,64.15
2022-10-30T05:16:41.246Z,64.55
2022-10-30T05:19:09.425Z,63.40
2022-10-30T05:21:37.940Z,64.80
2022-10-30T05:24:08.506Z,64.08
2022-10-30T05:26:44.394Z,64.38
2022-10-30T05:29:13.520Z,64.42
2022-10-30T05:31:41.939Z,65.31
2022-10-30T05:34:42.369Z,64.34
2022-10-30T05:37:12.273Z,64.11
2022-10-30T05:39:41.854Z,63.98
2022-10-30T05:42:18.620Z,63.12
2022-10-30T05:45:00.334Z,64.59
2022-10-30T05:47:30.612Z,63.27
2022-10-30T05:49:59.357Z,63.93
2022-10-30T05:52:29.255Z,64.82
2022-10-30T05:55:00.193Z,65.10
2022-10-30T05:57:42.732Z,64.96
2022-10-30T06:00:12.720Z,64.43
2022-10-30T06:02:43.660Z,63.92
2022-10-30T06:05:13.769Z,62.76
2022-10-30T06:07:41.943Z,64.13
2022-10-30T06:10:11.712Z,62.94
2022-10-30T06:12:45.360Z,61.97
2022-10-30T06:15:20.651Z,62.16
2022-10-30T06:17:49.031Z,60.25
2022-10-30T06:20:26.585Z,60.97
2022-10-30T06:23:17.650Z,61.42
2022-10-30T06:25:54.253Z,61.61
2022-10-30T06:28:35.483Z,62.31
2022-10-30T06:31:04.135Z,62.22
2022-10-30T06:33:33.392Z,61.84
2022-10-30T06:36:01.815Z,61.07
2022-10-30T06:38:29.975Z,61.47
2022-10-30T06:41:00.248Z,60.02
2022-10-30T06:43:34.110Z,59.85
2022-10-30T06:48:37.804Z,60.76
2022-10-30T06:51:06.043Z,61.99
2022-10-30T06:53:39.302Z,65.88
2022-10-30T06:56:27.292Z,71.37
2022-10-30T06:59:13.514Z,73.50
2022-10-30T07:01:47.287Z,76.65
2022-10-30T07:04:23.448Z,78.65
2022-10-30T07:06:52.452Z,80.63
2022-10-30T07:09:22.751Z,81.79
2022-10-30T07:11:56.680Z,82.21
2022-10-30T07:14:42.538Z,83.14
2022-10-30T07:17:26.756Z,83.89
2022-10-30T07:20:00.070Z,85.80
2022-10-30T07:22:28.573Z,86.25
2022-10-30T07:24:57.833Z,87.57
2022-10-30T07:27:56.982Z,88.90
2022-10-30T07:30:37.024Z,89.81
2022-10-30T07:33:23.113Z,91.05
2022-10-30T07:35:56.977Z,91.71
2022-10-30T07:39:03.482Z,93.05
2022-10-30T07:41:36.289Z,93.70
2022-10-30T07:44:40.813Z,92.48
2022-10-30T07:47:15.600Z,91.89
2022-10-30T07:50:01.933Z,95.36
2022-10-30T07:52:32.697Z,95.56
2022-10-30T07:55:01.604Z,97.24
2022-10-30T07:58:02.046Z,94.63
2022-10-30T08:00:51.984Z,95.27
2022-10-30T08:03:29.110Z,96.39
2022-10-30T08:06:20.075Z,97.36
2022-10-30T08:08:53.041Z,99.76
2022-10-30T08:11:25.754Z,98.53
2022-10-30T08:13:55.321Z,97.63
2022-10-30T08:16:25.907Z,98.49
2022-10-30T08:18:54.520Z,100.00
2022-10-30T08:21:26.048Z,100.00
2022-10-30T08:24:09.563Z,100.00
2022-10-30T08:26:41.751Z,100.00
2022-10-30T08:29:12.373Z,99.33
2022-10-30T08:31:42.706Z,99.09
2022-10-30T08:34:26.666Z,98.36
2022-10-30T08:36:56.289Z,96.82
2022-10-30T08:39:25.674Z,96.67
2022-10-30T08:42:26.536Z,94.81
2022-10-30T08:44:57.150Z,95.06
2022-10-30T08:47:59.540Z,96.67
2022-10-30T08:50:29.633Z,95.69
2022-10-30T08:53:01.892Z,93.09
2022-10-30T08:55:31.362Z,91.84
2022-10-30T08:58:01.759Z,91.73
2022-10-30T09:00:30.357Z,89.80
2022-10-30T09:03:15.075Z,87.75
2022-10-30T09:06:03.229Z,90.02
2022-10-30T09:08:50.148Z,86.95
2022-10-30T09:11:30.607Z,86.05
2022-10-30T09:13:59.709Z,86.38
2022-10-30T09:16:28.028Z,87.00
2022-10-30T09:18:57.568Z,89.91
2022-10-30T09:21:26.076Z,92.04
2022-10-30T09:23:55.342Z,93.71
2022-10-30T09:26:35.545Z,94.12
2022-10-30T09:29:11.929Z,93.94
2022-10-30T09:31:46.071Z,91.75
2022-10-30T09:34:19.980Z,85.58
2022-10-30T09:37:00.112Z,80.00
2022-10-30T09:39:30.047Z,75.65
2022-10-30T09:42:37.729Z,75.42
2022-10-30T09:45:30.078Z,70.56
2022-10-30T09:48:10.402Z,69.44
2022-10-30T09:50:57.825Z,70.75
2022-10-30T09:53:30.399Z,68.67
2022-10-30T09:56:05.846Z,66.49
2022-10-30T09:58:39.043Z,67.27
2022-10-30T10:01:12.356Z,67.71
2022-10-30T10:03:53.637Z,62.84
2022-10-30T10:06:57.854Z,63.64
2022-10-30T10:09:49.938Z,61.17
2022-10-30T10:12:39.130Z,60.18
2022-10-30T10:15:10.872Z,59.57
2022-10-30T10:17:40.480Z,56.83
2022-10-30T10:20:15.366Z,56.29
2022-10-30T10:22:48.071Z,55.49
2022-10-30T10:25:17.505Z,54.06
2022-10-30T10:27:52.827Z,52.41
2022-10-30T10:30:21.620Z,52.50
2022-10-30T10:33:17.328Z,50.46
2022-10-30T10:35:51.656Z,51.02
2022-10-30T10:38:32.666Z,50.94
2022-10-30T10:41:04.083Z,48.38
2022-10-30T10:43:38.215Z,46.65
2022-10-30T10:46:26.178Z,46.60
2022-10-30T10:49:03.668Z,46.45
2022-10-30T10:51:33.612Z,47.29
2022-10-30T10:54:09.600Z,46.33
2022-10-30T10:56:39.167Z,46.60
2022-10-30T10:59:19.445Z,45.76
2022-10-30T11:02:01.758Z,45.31
2022-10-30T11:04:33.889Z,46.19
2022-10-30T11:07:10.562Z,46.12
2022-10-30T11:09:41.077Z,42.37
2022-10-30T11:12:10.120Z,42.99
2022-10-30T11:15:14.834Z,43.21
2022-10-30T11:17:56.247Z,42.18
2022-10-30T11:20:31.310Z,42.08
2022-10-30T11:23:01.044Z,42.57
2022-10-30T11:25:39.030Z,40.96
2022-10-30T11:28:08.535Z,40.49
2022-10-30T11:30:39.269Z,39.24
2022-10-30T11:33:23.517Z,39.47
2022-10-30T11:39:40.009Z,39.64
2022-10-30T11:42:16.600Z,39.26
2022-10-30T11:44:49.488Z,38.92
2022-10-30T11:47:21.788Z,39.43
2022-10-30T11:49:54.004Z,38.29
2022-10-30T11:52:31.166Z,39.44
2022-10-30T11:55:03.622Z,38.74
2022-10-30T11:57:39.882Z,39.45
2022-10-30T12:00:15.447Z,39.87
2022-10-30T12:02:47.673Z,39.91
2022-10-30T12:05:38.212Z,39.21
2022-10-30T12:08:29.657Z,40.39
2022-10-30T12:11:00.523Z,41.01
2022-10-30T12:13:35.349Z,41.33
2022-10-30T12:16:09.693Z,41.86
2022-10-30T12:18:38.116Z,42.63
2022-10-30T12:21:09.028Z,43.17
2022-10-30T12:23:37.428Z,42.58
2022-10-30T12:26:10.694Z,42.70
2022-10-30T12:28:43.850Z,43.46
2022-10-30T12:31:13.756Z,43.95
2022-10-30T12:33:43.927Z,44.16
2022-10-30T12:36:13.551Z,44.42
2022-10-30T12:38:44.618Z,45.01
2022-10-30T12:41:16.014Z,45.51
2022-10-30T12:43:47.549Z,45.42
2022-10-30T12:47:09.621Z,45.54
2022-10-30T12:50:07.226Z,46.83
2022-10-30T12:52:47.734Z,47.23
2022-10-30T12:55:29.581Z,47.24
2022-10-30T12:58:31.434Z,47.71
2022-10-30T13:01:06.380Z,47.92
2022-10-30T13:03:38.635Z,47.10
2022-10-30T13:06:10.827Z,49.02
2022-10-30T13:08:46.036Z,49.20
2022-10-30T13:11:24.897Z,48.99
2022-10-30T13:13:57.627Z,49.70
2022-10-30T13:17:18.479Z,49.69
2022-10-30T13:20:07.780Z,50.95
2022-10-30T13:22:48.221Z,50.67
2022-10-30T13:26:00.261Z,52.06
2022-10-30T13:29:16.602Z,52.59
2022-10-30T13:32:13.251Z,51.51
2022-10-30T13:35:58.254Z,51.99
2022-10-30T13:42:44.760Z,52.96
2022-10-30T13:45:58.906Z,53.34
2022-10-30T13:51:37.562Z,52.65
2022-10-30T13:54:31.073Z,53.10
2022-10-30T13:57:27.975Z,54.09
2022-10-30T14:00:35.938Z,53.78
2022-10-30T14:03:14.181Z,54.44
2022-10-30T14:05:53.864Z,54.03
2022-10-30T14:08:39.488Z,54.45
2022-10-30T14:12:32.387Z,55.35
2022-10-30T14:14:36.154Z,55.55
2022-10-30T14:20:35.630Z,56.74
2022-10-30T14:23:22.371Z,57.00
2022-10-30T14:26:34.359Z,57.21
2022-10-30T14:29:05.586Z,56.90
2022-10-30T14:31:38.954Z,57.33
2022-10-30T14:34:46.324Z,57.63
2022-10-30T14:37:54.054Z,58.14
2022-10-30T14:40:51.313Z,57.63
2022-10-30T14:43:29.656Z,57.83
2022-10-30T14:46:02.248Z,58.42
2022-10-30T14:48:39.384Z,58.18
2022-10-30T14:51:38.297Z,59.46
2022-10-30T14:54:18.043Z,59.83
2022-10-30T14:56:52.882Z,61.63
2022-10-30T14:59:33.437Z,61.25
2022-10-30T15:02:10.113Z,60.69
2022-10-30T15:04:47.969Z,60.53
2022-10-30T15:07:21.260Z,59.60
2022-10-30T15:10:15.977Z,60.66
2022-10-30T15:12:59.607Z,60.67
2022-10-30T15:15:33.275Z,60.46
2022-10-30T15:18:08.036Z,60.05
2022-10-30T15:20:38.236Z,60.74
2022-10-30T15:23:08.959Z,60.27
2022-10-30T15:25:46.177Z,60.78
2022-10-30T15:28:30.011Z,60.35
2022-10-30T15:31:12.350Z,62.95
2022-10-30T15:33:43.744Z,61.90
2022-10-30T15:36:20.565Z,62.65
2022-10-30T15:39:13.378Z,62.83
2022-10-30T15:41:57.122Z,61.61
2022-10-30T15:44:27.752Z,62.59
2022-10-30T15:47:04.322Z,62.21
2022-10-30T15:49:33.985Z,63.99
2022-10-30T15:52:05.788Z,64.13
2022-10-30T15:54:36.910Z,63.51
2022-10-30T15:57:56.811Z,62.49
2022-10-30T16:00:23.123Z,63.74
2022-10-30T16:03:08.335Z,63.60
2022-10-30T16:05:39.686Z,64.28
2022-10-30T16:08:12.234Z,63.78
2022-10-30T16:10:40.628Z,65.05
2022-10-30T16:13:12.458Z,64.29
2022-10-30T16:15:41.399Z,64.02
2022-10-30T16:18:16.666Z,64.67
2022-10-30T16:20:50.153Z,62.06
2022-10-30T16:23:18.975Z,60.68
2022-10-30T16:25:47.747Z,61.72
2022-10-30T16:28:32.686Z,61.05
2022-10-30T16:31:02.116Z,60.84
2022-10-30T16:33:34.986Z,61.14
2022-10-30T16:36:03.930Z,59.54
2022-10-30T16:38:37.035Z,60.56
2022-10-30T16:41:06.707Z,62.06
2022-10-30T16:43:35.558Z,62.56
2022-10-30T16:46:34.237Z,65.47
2022-10-30T16:49:06.103Z,68.15
2022-10-30T16:51:34.350Z,69.33
2022-10-30T16:54:02.747Z,70.35
2022-10-30T16:56:34.247Z,71.76
2022-10-30T16:59:08.002Z,72.17
2022-10-30T17:01:36.493Z,73.34
2022-10-30T17:04:07.216Z,74.20
2022-10-30T17:06:41.171Z,75.37
2022-10-30T17:09:10.883Z,76.64
2022-10-30T17:11:42.061Z,77.64
2022-10-30T17:14:20.139Z,77.67
2022-10-30T17:16:58.260Z,78.40
2022-10-30T17:19:48.200Z,79.06
2022-10-30T17:22:18.942Z,79.90
2022-10-30T17:24:49.113Z,79.89
2022-10-30T17:27:46.754Z,80.40
2022-10-30T17:30:35.751Z,80.55
2022-10-30T17:33:04.519Z,80.41
2022-10-30T17:35:35.582Z,80.89
2022-10-30T17:38:04.177Z,81.20
2022-10-30T17:40:32.669Z,82.00
2022-10-30T17:43:01.054Z,82.38
2022-10-30T17:45:29.419Z,82.42
2022-10-30T17:51:58.796Z,84.44
2022-10-30T17:54:29.575Z,84.52
2022-10-30T17:57:00.968Z,85.15
2022-10-30T17:59:31.599Z,85.51
2022-10-30T18:02:01.276Z,86.49
2022-10-30T18:04:29.755Z,86.25
2022-10-30T18:06:59.672Z,86.35
2022-10-30T18:09:27.982Z,86.58
2022-10-30T18:11:56.319Z,87.31
2022-10-30T18:14:24.913Z,87.32
2022-10-30T18:16:55.527Z,87.75
2022-10-30T18:19:23.918Z,88.06
2022-10-30T18:21:54.180Z,88.08
2022-10-30T18:24:23.988Z,88.88
2022-10-30T18:26:53.951Z,89.58
2022-10-30T18:29:22.684Z,89.38
2022-10-30T18:31:51.046Z,90.12
2022-10-30T18:34:21.647Z,89.97
2022-10-30T18:36:50.175Z,90.46
2022-10-30T18:39:18.615Z,91.17
2022-10-30T18:41:49.561Z,91.12
2022-10-30T18:44:18.306Z,91.94
2022-10-30T18:46:50.780Z,90.93
2022-10-30T18:49:33.661Z,91.58
2022-10-30T18:52:02.276Z,92.19
2022-10-30T18:54:30.727Z,93.00
2022-10-30T18:57:00.585Z,93.48
2022-10-30T18:59:28.857Z,93.06
2022-10-30T19:01:59.656Z,94.09
2022-10-30T19:04:32.504Z,94.73
2022-10-30T19:07:02.283Z,94.17
2022-10-30T19:09:31.551Z,94.74
2022-10-30T19:12:01.443Z,94.91
2022-10-30T19:14:29.894Z,95.35
2022-10-30T19:17:00.721Z,95.26
2022-10-30T19:19:29.200Z,95.24
2022-10-30T19:21:57.628Z,95.33
2022-10-30T19:24:26.050Z,95.38
2022-10-30T19:26:58.152Z,95.63
2022-10-30T19:29:28.266Z,96.17
2022-10-30T19:31:56.924Z,96.42
2022-10-30T19:34:26.846Z,96.87
2022-10-30T19:36:56.507Z,96.62
2022-10-30T19:39:25.267Z,96.62
2022-10-30T19:41:55.874Z,96.94
2022-10-30T19:44:24.408Z,96.79
2022-10-30T19:47:10.273Z,97.76
2022-10-30T19:49:46.780Z,97.69
2022-10-30T19:52:33.768Z,97.23
2022-10-30T19:55:11.048Z,98.06
2022-10-30T19:57:42.127Z,98.37
2022-10-30T20:00:35.282Z,98.44
2022-10-30T20:03:13.618Z,98.63
2022-10-30T20:05:45.994Z,98.61
2022-10-30T20:08:32.412Z,98.82
2022-10-30T20:11:15.307Z,99.28
2022-10-30T20:13:52.063Z,99.60
2022-10-30T20:16:32.860Z,99.41
2022-10-30T20:19:31.230Z,99.34
2022-10-30T20:22:22.181Z,100.00
2022-10-30T20:25:04.492Z,100.00
2022-10-30T20:28:07.121Z,100.00
2022-10-30T20:30:41.403Z,99.54
2022-10-30T20:33:38.391Z,99.93
2022-10-30T20:36:25.815Z,100.00
2022-10-30T20:39:00.490Z,100.00
2022-10-30T20:41:32.624Z,100.00
2022-10-30T20:44:08.010Z,100.00
2022-10-30T20:46:36.361Z,99.43
2022-10-30T20:49:16.910Z,99.42
2022-10-30T20:51:48.393Z,99.72
2022-10-30T20:54:52.666Z,100.00
2022-10-30T20:57:47.770Z,99.79
2022-10-30T21:00:26.429Z,99.94
2022-10-30T21:02:55.064Z,99.68
2022-10-30T21:05:56.223Z,99.77
2022-10-30T21:08:37.869Z,100.00
2022-10-30T21:11:26.411Z,99.98
2022-10-30T21:14:09.073Z,100.00
2022-10-30T21:17:20.475Z,99.96
2022-10-30T21:19:57.603Z,100.00
2022-10-30T21:22:26.054Z,100.00
2022-10-30T21:24:57.106Z,100.00
2022-10-30T21:27:25.561Z,100.00
2022-10-30T21:29:53.938Z,100.00
2022-10-30T21:32:23.796Z,100.00
2022-10-30T21:34:54.461Z,100.00
2022-10-30T21:37:24.829Z,100.00
2022-10-30T21:39:55.954Z,100.00
2022-10-30T21:44:54.663Z,100.00
2022-10-30T21:47:25.658Z,100.00
2022-10-30T21:49:56.414Z,100.00
2022-10-30T21:52:27.815Z,100.00
2022-10-30T21:54:56.171Z,100.00
2022-10-30T21:57:25.886Z,100.00
2022-10-30T21:59:54.624Z,100.00
2022-10-30T22:02:23.181Z,100.00
2022-10-30T22:04:51.556Z,100.00
2022-10-30T22:07:19.904Z,100.00
2022-10-30T22:09:48.320Z,100.00
2022-10-30T22:12:16.610Z,100.00
2022-10-30T22:14:46.408Z,100.00
2022-10-30T22:17:16.040Z,100.00
2022-10-30T22:19:44.372Z,100.00
2022-10-30T22:22:12.843Z,100.00
2022-10-30T22:24:44.265Z,100.00
2022-10-30T22:27:13.111Z,100.00
2022-10-30T22:29:41.567Z,100.00
2022-10-30T22:32:11.332Z,100.00
2022-10-30T22:34:42.064Z,100.00
2022-10-30T22:37:10.375Z,100.00
2022-10-30T22:39:38.957Z,100.00
2022-10-30T22:42:07.274Z,100.00
2022-10-30T22:44:35.475Z,100.00
2022-10-30T22:47:03.745Z,100.00
2022-10-30T22:49:33.527Z,100.00
2022-10-30T22:52:01.908Z,100.00
2022-10-30T22:54:30.185Z,100.00
2022-10-30T22:56:58.563Z,100.00
2022-10-30T22:59:27.042Z,100.00
2022-10-30T23:01:55.337Z,100.00
2022-10-30T23:04:24.151Z,100.00
2022-10-30T23:06:54.174Z,100.00
2022-10-30T23:09:23.497Z,100.00
2022-10-30T23:11:53.585Z,100.00
2022-10-30T23:14:21.944Z,100.00
2022-10-30T23:16:50.244Z,100.00
2022-10-30T23:19:18.870Z,100.00
2022-10-30T23:21:47.259Z,100.00
2022-10-30T23:24:17.038Z,100.00
2022-10-30T23:26:45.467Z,100.00
2022-10-30T23:29:13.818Z,100.00
2022-10-30T23:31:42.592Z,100.00
2022-10-30T23:34:12.577Z,100.00
2022-10-30T23:36:41.036Z,100.00
2022-10-30T23:39:10.317Z,100.00
2022-10-30T23:41:40.046Z,100.00
2022-10-30T23:44:09.260Z,100.00
2022-10-30T23:46:37.727Z,100.00
2022-10-30T23:49:06.521Z,100.00
2022-10-30T23:51:34.970Z,100.00
2022-10-30T23:54:03.381Z,100.00
2022-10-30T23:56:31.698Z,100.00
2022-10-30T23:59:01.772Z,100.00
